EPKK/KRK METAR and TAF weather

Enter ICAO airport designator
Station Type Date Time Source
EPKK METAR 2019/04/24 22:30 UTC NOAA

EPKK 242230Z 05006KT CAVOK 12/08 Q1015


Station Type Date Time Source
EPKK Decoded METAR 2019/04/24 22:30 UTC NOAA

Krakow, Poland (EPKK) 50-05N 019-48E 237M
Apr 24, 2019 - 06:30 PM EDT / 2019.04.24 2230 UTC
Wind: from the NE (050 degrees) at 7 MPH (6 KT):0
Visibility: greater than 7 mile(s):0
Temperature: 53 F (12 C)
Dew Point: 46 F (8 C)
Relative Humidity: 76%
Pressure (altimeter): 29.97 in. Hg (1015 hPa)
ob: EPKK 242230Z 05006KT CAVOK 12/08 Q1015
cycle: 22

Station Type Date Time Source
EPKK TAF 2019/04/24 21:33 UTC NOAA

TAF TAF EPKK 242030Z 2421/2521 07007KT CAVOK
BECMG 2507/2510 22010KT
BECMG 2516/2519 08005KT

Example: see airport list